createdAt,value
2022-09-16T00:02:22.542Z,0.80
2022-09-16T00:04:50.256Z,0.98
2022-09-16T00:07:20.262Z,1.00
2022-09-16T00:09:47.965Z,0.77
2022-09-16T00:12:15.612Z,0.80
2022-09-16T00:14:43.315Z,0.80
2022-09-16T00:17:10.967Z,0.80
2022-09-16T00:19:38.657Z,0.88
2022-09-16T00:22:06.430Z,0.80
2022-09-16T00:24:35.550Z,1.02
2022-09-16T00:27:03.217Z,0.68
2022-09-16T00:29:30.911Z,0.90
2022-09-16T00:31:58.568Z,0.88
2022-09-16T00:34:26.249Z,1.08
2022-09-16T00:36:53.924Z,0.82
2022-09-16T00:39:21.619Z,0.95
2022-09-16T00:41:50.624Z,0.77
2022-09-16T00:44:52.982Z,0.90
2022-09-16T00:47:23.106Z,0.80
2022-09-16T00:52:18.244Z,1.00
2022-09-16T00:54:45.931Z,0.73
2022-09-16T00:57:14.923Z,0.98
2022-09-16T00:59:43.148Z,0.75
2022-09-16T01:02:12.365Z,0.88
2022-09-16T01:04:43.156Z,0.70
2022-09-16T01:07:10.842Z,0.80
2022-09-16T01:09:38.708Z,0.70
2022-09-16T01:12:06.792Z,0.82
2022-09-16T01:14:54.337Z,0.80
2022-09-16T01:17:28.110Z,0.75
2022-09-16T01:20:11.099Z,0.80
2022-09-16T01:22:47.220Z,1.13
2022-09-16T01:25:21.593Z,0.77
2022-09-16T01:27:59.338Z,0.70
2022-09-16T01:30:54.258Z,1.08
2022-09-16T01:33:28.244Z,0.75
2022-09-16T01:36:12.217Z,0.82
2022-09-16T01:38:51.500Z,0.80
2022-09-16T01:41:22.559Z,0.87
2022-09-16T01:43:54.727Z,0.70
2022-09-16T01:46:25.678Z,0.90
2022-09-16T01:48:55.611Z,1.00
2022-09-16T01:51:25.269Z,0.93
2022-09-16T01:53:54.407Z,0.80
2022-09-16T01:56:23.928Z,1.00
2022-09-16T01:58:54.467Z,1.15
2022-09-16T02:01:25.654Z,0.80
2022-09-16T02:04:01.331Z,1.00
2022-09-16T02:06:29.252Z,0.77
2022-09-16T02:08:58.850Z,1.17
2022-09-16T02:11:26.554Z,0.60
2022-09-16T02:13:55.563Z,0.70
2022-09-16T02:16:27.130Z,0.98
2022-09-16T02:18:56.131Z,0.70
2022-09-16T02:21:24.800Z,0.90
2022-09-16T02:23:53.409Z,0.90
2022-09-16T02:26:22.205Z,0.80
2022-09-16T02:28:50.983Z,0.95
2022-09-16T02:31:20.221Z,0.60
2022-09-16T02:33:51.087Z,0.90
2022-09-16T02:36:21.152Z,0.68
2022-09-16T02:41:16.826Z,0.80
2022-09-16T02:43:44.692Z,0.65
2022-09-16T02:46:15.859Z,0.90
2022-09-16T02:48:54.796Z,0.75
2022-09-16T02:51:27.487Z,0.80
2022-09-16T02:53:56.528Z,0.60
2022-09-16T02:56:26.090Z,0.80
2022-09-16T02:58:53.816Z,0.75
2022-09-16T03:01:21.802Z,0.98
2022-09-16T03:03:51.110Z,0.60
2022-09-16T03:06:20.987Z,0.60
2022-09-16T03:08:48.689Z,0.82
2022-09-16T03:11:35.001Z,0.70
2022-09-16T03:14:10.590Z,0.85
2022-09-16T03:16:46.044Z,0.90
2022-09-16T03:19:16.801Z,0.80
2022-09-16T03:21:48.328Z,0.70
2022-09-16T03:24:19.250Z,0.73
2022-09-16T03:26:47.984Z,0.80
2022-09-16T03:29:19.759Z,0.90
2022-09-16T03:31:49.132Z,0.88
2022-09-16T03:34:20.203Z,0.80
2022-09-16T03:36:50.964Z,0.90
2022-09-16T03:39:18.667Z,0.88
2022-09-16T03:41:46.338Z,0.80
2022-09-16T03:44:14.082Z,0.75
2022-09-16T03:46:41.830Z,0.85
2022-09-16T03:49:09.526Z,0.60
2022-09-16T03:51:38.521Z,0.60
2022-09-16T03:54:06.551Z,1.08
2022-09-16T03:56:34.240Z,1.05
2022-09-16T03:59:01.950Z,0.70
2022-09-16T04:01:29.676Z,0.82
2022-09-16T04:03:57.610Z,0.98
2022-09-16T04:06:25.288Z,0.75
2022-09-16T04:08:54.381Z,0.70
2022-09-16T04:11:22.082Z,0.70
2022-09-16T04:13:49.799Z,0.90
2022-09-16T04:16:20.271Z,0.80
2022-09-16T04:18:48.028Z,0.70
2022-09-16T04:21:15.805Z,0.50
2022-09-16T04:23:43.542Z,0.82
2022-09-16T04:26:12.667Z,0.73
2022-09-16T04:28:40.387Z,0.70
2022-09-16T04:31:10.936Z,0.68
2022-09-16T04:33:38.892Z,0.70
2022-09-16T04:36:08.520Z,0.80
2022-09-16T04:38:36.232Z,0.70
2022-09-16T04:41:04.196Z,0.85
2022-09-16T04:43:33.247Z,0.70
2022-09-16T04:46:01.208Z,0.70
2022-09-16T04:48:29.081Z,0.90
2022-09-16T04:51:02.047Z,0.80
2022-09-16T04:53:29.773Z,0.70
2022-09-16T04:56:04.262Z,0.85
2022-09-16T04:58:33.316Z,0.80
2022-09-16T05:01:06.006Z,0.80
2022-09-16T05:03:33.850Z,0.75
2022-09-16T05:06:06.508Z,0.70
2022-09-16T05:08:35.350Z,1.05
2022-09-16T05:11:07.437Z,0.85
2022-09-16T05:13:36.559Z,0.68
2022-09-16T05:16:05.634Z,0.90
2022-09-16T05:18:33.337Z,0.80
2022-09-16T05:21:01.226Z,0.70
2022-09-16T05:23:28.943Z,0.75
2022-09-16T05:25:56.645Z,0.82
2022-09-16T05:28:24.381Z,0.73
2022-09-16T05:30:53.460Z,0.88
2022-09-16T05:33:21.184Z,0.77
2022-09-16T05:35:48.894Z,0.80
2022-09-16T05:38:16.795Z,0.70
2022-09-16T05:40:44.484Z,0.75
2022-09-16T05:43:12.203Z,0.70
2022-09-16T05:45:40.033Z,0.90
2022-09-16T05:48:09.132Z,0.88
2022-09-16T05:50:36.775Z,0.90
2022-09-16T05:53:04.632Z,0.90
2022-09-16T05:55:32.335Z,0.73
2022-09-16T05:57:59.995Z,0.80
2022-09-16T06:00:27.674Z,0.90
2022-09-16T06:02:55.424Z,0.80
2022-09-16T06:05:24.610Z,0.80
2022-09-16T06:07:52.285Z,0.65
2022-09-16T06:10:19.977Z,0.98
2022-09-16T06:12:47.654Z,0.70
2022-09-16T06:15:15.407Z,0.75
2022-09-16T06:17:43.083Z,0.70
2022-09-16T06:20:14.690Z,0.70
2022-09-16T06:22:43.730Z,0.77
2022-09-16T06:25:11.937Z,0.82
2022-09-16T06:27:39.607Z,0.70
2022-09-16T06:30:07.999Z,0.80
2022-09-16T06:32:35.686Z,0.80
2022-09-16T06:35:03.394Z,1.10
2022-09-16T06:37:31.073Z,1.00
2022-09-16T06:40:00.193Z,0.90
2022-09-16T06:42:28.455Z,0.90
2022-09-16T06:44:56.376Z,1.00
2022-09-16T06:47:24.117Z,0.90
2022-09-16T06:49:51.981Z,0.90
2022-09-16T06:52:20.043Z,0.80
2022-09-16T06:54:48.375Z,0.82
2022-09-16T06:57:18.226Z,0.85
2022-09-16T06:59:45.919Z,0.80
2022-09-16T07:02:13.642Z,0.95
2022-09-16T07:04:41.428Z,0.88
2022-09-16T07:07:10.279Z,1.00
2022-09-16T07:09:38.437Z,0.90
2022-09-16T07:12:06.243Z,0.90
2022-09-16T07:14:35.497Z,0.90
2022-09-16T07:17:03.291Z,0.70
2022-09-16T07:19:31.121Z,1.00
2022-09-16T07:21:58.780Z,0.80
2022-09-16T07:24:26.530Z,1.08
2022-09-16T07:26:54.239Z,1.00
2022-09-16T07:29:22.106Z,0.93
2022-09-16T07:31:51.169Z,1.00
2022-09-16T07:34:18.942Z,1.02
2022-09-16T07:36:47.881Z,0.98
2022-09-16T07:39:16.613Z,0.80
2022-09-16T07:41:45.192Z,1.15
2022-09-16T07:44:14.180Z,0.88
2022-09-16T07:46:41.888Z,0.80
2022-09-16T07:49:12.722Z,0.98
2022-09-16T07:51:40.374Z,1.05
2022-09-16T07:54:09.138Z,0.85
2022-09-16T07:56:38.672Z,0.90
2022-09-16T07:59:07.694Z,0.88
2022-09-16T08:01:38.863Z,0.65
2022-09-16T08:04:10.454Z,0.90
2022-09-16T08:06:39.085Z,0.77
2022-09-16T08:09:15.616Z,0.70
2022-09-16T08:11:54.520Z,0.80
2022-09-16T08:14:22.246Z,0.90
2022-09-16T08:16:51.456Z,0.80
2022-09-16T08:19:22.557Z,1.20
2022-09-16T08:21:50.343Z,0.70
2022-09-16T08:24:18.040Z,1.00
2022-09-16T08:26:45.768Z,1.00
2022-09-16T08:29:13.767Z,0.90
2022-09-16T08:31:41.982Z,0.98
2022-09-16T08:34:09.766Z,1.05
2022-09-16T08:36:38.774Z,1.00
2022-09-16T08:39:06.690Z,0.80
2022-09-16T08:41:42.669Z,0.88
2022-09-16T08:44:17.889Z,0.90
2022-09-16T08:46:48.761Z,0.85
2022-09-16T08:49:19.236Z,0.90
2022-09-16T08:51:48.285Z,0.80
2022-09-16T08:54:19.594Z,1.00
2022-09-16T08:56:49.571Z,0.88
2022-09-16T08:59:20.595Z,1.00
2022-09-16T09:01:51.693Z,0.88
2022-09-16T09:04:19.680Z,0.82
2022-09-16T09:06:55.295Z,0.80
2022-09-16T09:09:38.522Z,0.73
2022-09-16T09:12:09.485Z,0.82
2022-09-16T09:14:44.086Z,0.93
2022-09-16T09:17:18.168Z,0.90
2022-09-16T09:19:53.784Z,0.88
2022-09-16T09:22:27.670Z,0.80
2022-09-16T09:25:02.943Z,0.85
2022-09-16T09:27:33.040Z,0.80
2022-09-16T09:32:48.924Z,0.90
2022-09-16T09:35:23.741Z,0.88
2022-09-16T09:38:07.652Z,1.00
2022-09-16T09:40:38.448Z,1.17
2022-09-16T09:43:15.879Z,1.15
2022-09-16T09:45:46.165Z,1.08
2022-09-16T09:48:19.157Z,0.93
2022-09-16T09:50:47.668Z,1.00
2022-09-16T09:53:20.184Z,1.02
2022-09-16T09:55:47.891Z,0.80
2022-09-16T09:58:24.296Z,1.20
2022-09-16T10:00:53.264Z,0.80
2022-09-16T10:03:20.989Z,0.70
2022-09-16T10:05:48.904Z,1.00
2022-09-16T10:08:25.504Z,0.98
2022-09-16T10:10:53.959Z,0.90
2022-09-16T10:13:22.726Z,1.00
2022-09-16T10:15:53.424Z,1.00
2022-09-16T10:18:26.196Z,1.10
2022-09-16T10:21:00.383Z,1.10
2022-09-16T10:23:30.468Z,1.20
2022-09-16T10:26:05.763Z,1.13
2022-09-16T10:28:33.443Z,1.00
2022-09-16T10:31:01.259Z,1.23
2022-09-16T10:33:30.159Z,1.15
2022-09-16T10:36:00.712Z,0.95
2022-09-16T10:38:38.549Z,1.00
2022-09-16T10:41:09.385Z,1.08
2022-09-16T10:43:38.441Z,1.25
2022-09-16T10:46:06.483Z,0.85
2022-09-16T10:48:34.624Z,0.93
2022-09-16T10:51:03.533Z,1.15
2022-09-16T10:53:37.716Z,1.00
2022-09-16T10:56:08.050Z,1.23
2022-09-16T10:58:35.712Z,1.10
2022-09-16T11:01:21.307Z,0.90
2022-09-16T11:04:05.497Z,1.00
2022-09-16T11:06:40.626Z,1.50
2022-09-16T11:09:14.736Z,0.93
2022-09-16T11:11:50.754Z,1.00
2022-09-16T11:14:23.718Z,1.10
2022-09-16T11:17:22.028Z,1.02
2022-09-16T11:19:57.400Z,0.90
2022-09-16T11:22:28.814Z,1.00
2022-09-16T11:25:17.756Z,1.10
2022-09-16T11:27:47.141Z,1.23
2022-09-16T11:30:15.492Z,1.05
2022-09-16T11:33:01.851Z,1.17
2022-09-16T11:35:43.346Z,0.85
2022-09-16T11:38:16.415Z,1.00
2022-09-16T11:40:48.828Z,1.00
2022-09-16T11:43:30.030Z,0.98
2022-09-16T11:45:59.557Z,0.90
2022-09-16T11:48:39.150Z,1.00
2022-09-16T11:51:10.971Z,1.00
2022-09-16T11:54:06.907Z,0.80
2022-09-16T11:56:38.535Z,1.00
2022-09-16T11:59:11.559Z,1.10
2022-09-16T12:01:42.661Z,1.10
2022-09-16T12:04:13.625Z,1.17
2022-09-16T12:06:44.095Z,1.30
2022-09-16T12:09:13.525Z,0.90
2022-09-16T12:11:45.852Z,0.90
2022-09-16T12:14:15.759Z,1.02
2022-09-16T12:16:46.498Z,1.17
2022-09-16T12:19:17.987Z,1.35
2022-09-16T12:21:48.723Z,0.90
2022-09-16T12:24:19.862Z,0.93
2022-09-16T12:26:50.980Z,1.17
2022-09-16T12:29:20.577Z,1.05
2022-09-16T12:31:50.207Z,1.13
2022-09-16T12:34:19.353Z,0.90
2022-09-16T12:36:48.856Z,1.00
2022-09-16T12:39:16.738Z,1.25
2022-09-16T12:42:12.470Z,1.20
2022-09-16T12:44:54.023Z,1.00
2022-09-16T12:47:46.430Z,1.08
2022-09-16T12:50:21.641Z,1.10
2022-09-16T12:53:03.220Z,1.10
2022-09-16T12:55:44.681Z,0.90
2022-09-16T12:58:38.596Z,1.15
2022-09-16T13:01:16.806Z,1.00
2022-09-16T13:03:46.234Z,1.23
2022-09-16T13:06:25.327Z,0.90
2022-09-16T13:08:53.107Z,0.80
2022-09-16T13:14:21.211Z,0.80
2022-09-16T13:16:54.143Z,0.80
2022-09-16T13:19:44.476Z,1.00
2022-09-16T13:22:20.415Z,1.10
2022-09-16T13:24:49.499Z,1.00
2022-09-16T13:27:28.973Z,1.20
2022-09-16T13:32:39.186Z,0.80
2022-09-16T13:35:22.033Z,1.00
2022-09-16T13:37:50.616Z,1.25
2022-09-16T13:40:19.740Z,0.95
2022-09-16T13:42:47.482Z,0.70
2022-09-16T13:45:35.538Z,0.70
2022-09-16T13:48:07.445Z,1.00
2022-09-16T13:50:35.622Z,0.85
2022-09-16T13:53:10.386Z,1.02
2022-09-16T13:55:38.072Z,1.00
2022-09-16T13:58:06.878Z,0.80
2022-09-16T14:00:37.679Z,0.90
2022-09-16T14:03:38.400Z,1.02
2022-09-16T14:06:31.275Z,0.80
2022-09-16T14:09:00.186Z,1.08
2022-09-16T14:11:32.288Z,0.98
2022-09-16T14:14:05.722Z,0.90
2022-09-16T14:16:35.240Z,0.73
2022-09-16T14:19:05.832Z,1.00
2022-09-16T14:21:33.548Z,0.90
2022-09-16T14:24:09.356Z,0.80
2022-09-16T14:26:37.079Z,0.88
2022-09-16T14:29:05.428Z,0.93
2022-09-16T14:31:33.741Z,1.10
2022-09-16T14:34:04.568Z,0.88
2022-09-16T14:36:35.026Z,1.02
2022-09-16T14:39:04.794Z,1.10
2022-09-16T14:41:34.032Z,1.10
2022-09-16T14:44:10.952Z,0.90
2022-09-16T14:46:43.491Z,0.93
2022-09-16T14:49:11.722Z,1.10
2022-09-16T14:51:40.834Z,1.15
2022-09-16T14:54:17.227Z,0.80
2022-09-16T14:56:56.300Z,0.90
2022-09-16T14:59:25.136Z,1.10
2022-09-16T15:01:52.896Z,0.80
2022-09-16T15:04:24.036Z,0.80
2022-09-16T15:06:55.802Z,0.90
2022-09-16T15:09:27.499Z,1.00
2022-09-16T15:11:56.446Z,0.90
2022-09-16T15:14:24.127Z,0.90
2022-09-16T15:16:53.403Z,1.10
2022-09-16T15:19:22.296Z,1.00
2022-09-16T15:21:50.059Z,1.02
2022-09-16T15:24:20.892Z,0.93
2022-09-16T15:26:48.626Z,1.02
2022-09-16T15:29:28.579Z,1.13
2022-09-16T15:31:56.336Z,0.93
2022-09-16T15:34:24.821Z,1.13
2022-09-16T15:36:53.123Z,0.80
2022-09-16T15:39:26.170Z,0.80
2022-09-16T15:42:06.076Z,0.88
2022-09-16T15:44:37.443Z,1.13
2022-09-16T15:47:05.626Z,1.00
2022-09-16T15:49:34.714Z,1.00
2022-09-16T15:52:06.989Z,0.90
2022-09-16T15:54:37.571Z,1.02
2022-09-16T15:57:06.864Z,0.90
2022-09-16T15:59:36.848Z,1.23
2022-09-16T16:02:07.574Z,1.42
2022-09-16T16:04:35.401Z,0.90
2022-09-16T16:07:03.728Z,0.80
2022-09-16T16:09:37.871Z,0.80
2022-09-16T16:12:07.634Z,1.17
2022-09-16T16:14:35.621Z,1.00
2022-09-16T16:17:14.116Z,1.00
2022-09-16T16:19:42.646Z,1.10
2022-09-16T16:22:10.371Z,1.02
2022-09-16T16:24:39.425Z,1.08
2022-09-16T16:27:08.455Z,1.00
2022-09-16T16:29:36.156Z,1.00
2022-09-16T16:32:06.156Z,0.90
2022-09-16T16:34:34.308Z,1.00
2022-09-16T16:37:02.075Z,1.23
2022-09-16T16:39:30.290Z,0.90
2022-09-16T16:41:59.341Z,1.05
2022-09-16T16:44:27.215Z,1.00
2022-09-16T16:46:56.388Z,0.95
2022-09-16T16:49:24.299Z,0.87
2022-09-16T16:51:52.220Z,0.65
2022-09-16T16:54:20.110Z,1.13
2022-09-16T16:56:47.818Z,1.05
2022-09-16T16:59:16.950Z,1.02
2022-09-16T17:01:48.623Z,1.00
2022-09-16T17:04:17.009Z,1.17
2022-09-16T17:06:44.911Z,1.15
2022-09-16T17:09:15.958Z,1.00
2022-09-16T17:11:51.584Z,0.93
2022-09-16T17:14:20.924Z,1.00
2022-09-16T17:16:48.815Z,1.10
2022-09-16T17:19:16.915Z,0.90
2022-09-16T17:21:44.932Z,0.80
2022-09-16T17:24:12.644Z,0.98
2022-09-16T17:26:40.337Z,0.88
2022-09-16T17:29:15.476Z,0.90
2022-09-16T17:31:45.042Z,1.00
2022-09-16T17:34:13.583Z,1.00
2022-09-16T17:36:44.204Z,1.13
2022-09-16T17:39:14.952Z,0.85
2022-09-16T17:41:44.076Z,1.38
2022-09-16T17:44:12.366Z,1.05
2022-09-16T17:46:40.185Z,0.80
2022-09-16T17:49:11.659Z,1.10
2022-09-16T17:51:39.356Z,0.93
2022-09-16T17:54:08.741Z,1.40
2022-09-16T17:56:36.602Z,0.70
2022-09-16T17:59:04.430Z,1.02
2022-09-16T18:01:32.132Z,1.00
2022-09-16T18:03:59.979Z,1.15
2022-09-16T18:06:30.848Z,1.08
2022-09-16T18:09:00.575Z,1.08
2022-09-16T18:11:28.346Z,1.27
2022-09-16T18:13:57.158Z,1.13
2022-09-16T18:16:25.128Z,1.00
2022-09-16T18:18:54.195Z,0.98
2022-09-16T18:21:23.154Z,0.95
2022-09-16T18:23:54.354Z,1.10
2022-09-16T18:26:22.166Z,1.10
2022-09-16T18:31:38.020Z,1.00
2022-09-16T18:34:05.872Z,1.27
2022-09-16T18:36:35.188Z,1.23
2022-09-16T18:39:04.713Z,1.00
2022-09-16T18:41:33.764Z,1.30
2022-09-16T18:44:02.607Z,1.25
2022-09-16T18:46:31.292Z,1.40
2022-09-16T18:48:59.213Z,1.05
2022-09-16T18:51:28.667Z,1.10
2022-09-16T18:53:57.836Z,1.38
2022-09-16T18:56:27.444Z,1.70
2022-09-16T18:59:19.802Z,1.23
2022-09-16T19:01:43.775Z,1.40
2022-09-16T19:04:12.132Z,1.33
2022-09-16T19:06:42.004Z,1.30
2022-09-16T19:09:11.651Z,1.30
2022-09-16T19:11:40.851Z,1.65
2022-09-16T19:14:09.377Z,1.43
2022-09-16T19:16:37.249Z,1.60
2022-09-16T19:19:05.591Z,1.48
2022-09-16T19:21:33.287Z,1.52
2022-09-16T19:24:02.284Z,1.48
2022-09-16T19:26:31.383Z,1.30
2022-09-16T19:29:01.287Z,1.50
2022-09-16T19:31:29.286Z,1.52
2022-09-16T19:33:57.017Z,1.70
2022-09-16T19:36:25.849Z,1.40
2022-09-16T19:38:53.590Z,1.30
2022-09-16T19:41:22.507Z,1.50
2022-09-16T19:43:54.270Z,1.20
2022-09-16T19:46:23.949Z,1.30
2022-09-16T19:48:52.153Z,1.33
2022-09-16T19:51:22.603Z,1.80
2022-09-16T19:53:50.506Z,1.50
2022-09-16T19:56:21.262Z,1.50
2022-09-16T19:58:49.292Z,1.45
2022-09-16T20:01:18.599Z,1.40
2022-09-16T20:03:49.288Z,1.30
2022-09-16T20:06:17.844Z,1.70
2022-09-16T20:08:46.316Z,1.40
2022-09-16T20:11:16.550Z,1.67
2022-09-16T20:13:48.496Z,1.60
2022-09-16T20:16:16.422Z,1.50
2022-09-16T20:18:44.116Z,1.55
2022-09-16T20:21:14.658Z,1.58
2022-09-16T20:23:42.570Z,1.55
2022-09-16T20:26:12.022Z,1.38
2022-09-16T20:28:42.035Z,1.65
2022-09-16T20:33:37.712Z,1.70
2022-09-16T20:36:05.972Z,1.40
2022-09-16T20:38:36.499Z,1.80
2022-09-16T20:41:05.949Z,1.40
2022-09-16T20:43:33.630Z,1.30
2022-09-16T20:46:05.152Z,1.38
2022-09-16T20:48:32.927Z,1.50
2022-09-16T20:51:04.335Z,1.60
2022-09-16T20:53:31.993Z,1.60
2022-09-16T20:56:04.700Z,1.20
2022-09-16T20:58:32.396Z,1.40
2022-09-16T21:01:04.878Z,1.45
2022-09-16T21:03:32.640Z,1.50
2022-09-16T21:06:04.299Z,1.25
2022-09-16T21:08:34.120Z,1.20
2022-09-16T21:13:34.252Z,1.52
2022-09-16T21:16:02.244Z,1.40
2022-09-16T21:18:30.531Z,1.40
2022-09-16T21:21:02.529Z,1.52
2022-09-16T21:23:30.357Z,1.20
2022-09-16T21:26:02.982Z,1.20
2022-09-16T21:28:34.102Z,1.30
2022-09-16T21:31:02.659Z,1.15
2022-09-16T21:33:30.970Z,1.33
2022-09-16T21:35:58.644Z,1.10
2022-09-16T21:38:26.396Z,1.02
2022-09-16T21:40:57.907Z,1.25
2022-09-16T21:43:27.426Z,1.02
2022-09-16T21:45:56.574Z,1.30
2022-09-16T21:48:25.232Z,1.00
2022-09-16T21:50:53.590Z,1.20
2022-09-16T21:53:21.612Z,1.00
2022-09-16T21:55:49.280Z,1.20
2022-09-16T21:58:16.964Z,1.02
2022-09-16T22:00:44.662Z,0.98
2022-09-16T22:03:13.759Z,0.85
2022-09-16T22:05:41.444Z,1.00
2022-09-16T22:08:09.171Z,0.90
2022-09-16T22:10:37.633Z,1.00
2022-09-16T22:13:05.465Z,0.93
2022-09-16T22:15:33.144Z,0.82
2022-09-16T22:18:02.333Z,1.00
2022-09-16T22:20:31.400Z,1.10
2022-09-16T22:22:59.109Z,1.17
2022-09-16T22:25:27.081Z,0.90
2022-09-16T22:27:54.779Z,0.88
2022-09-16T22:30:22.458Z,1.00
2022-09-16T22:32:50.165Z,0.90
2022-09-16T22:35:17.983Z,0.73
2022-09-16T22:37:49.546Z,0.80
2022-09-16T22:40:17.331Z,0.88
2022-09-16T22:42:45.089Z,0.90
2022-09-16T22:45:12.766Z,0.82
2022-09-16T22:47:40.454Z,0.70
2022-09-16T22:50:08.986Z,0.68
2022-09-16T22:52:36.680Z,0.70
2022-09-16T22:55:08.087Z,0.70
2022-09-16T22:57:35.810Z,0.80
2022-09-16T23:00:03.614Z,0.68
2022-09-16T23:02:31.303Z,0.63
2022-09-16T23:04:58.983Z,0.60
2022-09-16T23:07:26.712Z,0.80
2022-09-16T23:09:54.564Z,0.82
2022-09-16T23:12:23.616Z,0.60
2022-09-16T23:14:51.303Z,0.70
2022-09-16T23:17:18.993Z,0.63
2022-09-16T23:19:46.671Z,0.73
2022-09-16T23:22:14.384Z,0.60
2022-09-16T23:24:42.054Z,0.57
2022-09-16T23:27:09.756Z,0.57
2022-09-16T23:29:38.752Z,0.70
2022-09-16T23:32:06.701Z,0.52
2022-09-16T23:34:34.380Z,0.50
2022-09-16T23:37:02.086Z,0.55
2022-09-16T23:39:29.756Z,0.60
2022-09-16T23:41:57.459Z,0.55
2022-09-16T23:44:25.721Z,0.60
2022-09-16T23:46:54.820Z,0.70
2022-09-16T23:49:22.808Z,0.50
2022-09-16T23:51:50.510Z,0.55
2022-09-16T23:54:18.148Z,0.60
2022-09-16T23:56:45.916Z,0.55
2022-09-16T23:59:13.603Z,0.50
